createdAt,value
2022-10-14T00:00:24.419Z,12.97
2022-10-14T00:02:54.338Z,12.94
2022-10-14T00:05:24.081Z,12.93
2022-10-14T00:07:53.877Z,12.93
2022-10-14T00:10:26.258Z,12.93
2022-10-14T00:12:56.465Z,12.91
2022-10-14T00:15:26.217Z,12.88
2022-10-14T00:17:56.146Z,12.87
2022-10-14T00:20:25.916Z,12.86
2022-10-14T00:22:55.804Z,12.82
2022-10-14T00:25:28.849Z,12.80
2022-10-14T00:27:58.824Z,12.75
2022-10-14T00:30:28.693Z,12.75
2022-10-14T00:32:58.633Z,12.74
2022-10-14T00:35:28.417Z,12.74
2022-10-14T00:37:58.313Z,12.72
2022-10-14T00:40:30.851Z,12.70
2022-10-14T00:46:03.928Z,12.65
2022-10-14T00:48:36.024Z,12.62
2022-10-14T00:51:05.815Z,12.61
2022-10-14T00:53:35.878Z,12.61
2022-10-14T00:56:10.533Z,12.60
2022-10-14T00:58:40.829Z,12.57
2022-10-14T01:01:10.862Z,12.54
2022-10-14T01:03:40.760Z,12.52
2022-10-14T01:06:22.101Z,12.52
2022-10-14T01:09:02.072Z,12.52
2022-10-14T01:11:43.614Z,12.50
2022-10-14T01:14:23.536Z,12.49
2022-10-14T01:17:03.441Z,12.46
2022-10-14T01:19:55.947Z,12.47
2022-10-14T01:22:32.115Z,12.43
2022-10-14T01:25:11.857Z,12.43
2022-10-14T01:28:20.902Z,12.42
2022-10-14T01:31:01.050Z,12.42
2022-10-14T01:33:36.317Z,12.41
2022-10-14T01:36:11.387Z,12.40
2022-10-14T01:38:44.400Z,12.38
2022-10-14T01:41:20.341Z,12.37
2022-10-14T01:43:53.280Z,12.36
2022-10-14T01:46:28.572Z,12.35
2022-10-14T01:49:03.365Z,12.33
2022-10-14T01:51:37.689Z,12.31
2022-10-14T01:54:11.603Z,12.30
2022-10-14T01:56:42.234Z,12.28
2022-10-14T01:59:15.525Z,12.27
2022-10-14T02:01:48.201Z,12.26
2022-10-14T02:04:19.436Z,12.25
2022-10-14T02:06:53.981Z,12.24
2022-10-14T02:09:29.721Z,12.23
2022-10-14T02:12:11.392Z,12.22
2022-10-14T02:14:47.328Z,12.20
2022-10-14T02:17:24.889Z,12.19
2022-10-14T02:20:01.007Z,12.16
2022-10-14T02:22:35.042Z,12.13
2022-10-14T02:25:12.351Z,12.11
2022-10-14T02:27:44.540Z,12.09
2022-10-14T02:30:16.118Z,12.07
2022-10-14T02:32:50.632Z,12.05
2022-10-14T02:35:22.510Z,12.03
2022-10-14T02:37:54.882Z,12.00
2022-10-14T02:40:31.605Z,12.00
2022-10-14T02:43:01.773Z,11.97
2022-10-14T02:45:32.465Z,11.97
2022-10-14T02:48:04.857Z,11.98
2022-10-14T02:50:34.713Z,11.94
2022-10-14T02:53:04.528Z,11.93
2022-10-14T02:55:34.262Z,11.91
2022-10-14T02:58:04.052Z,11.87
2022-10-14T03:00:33.940Z,11.85
2022-10-14T03:03:06.431Z,11.85
2022-10-14T03:05:36.445Z,11.84
2022-10-14T03:08:06.446Z,11.82
2022-10-14T03:10:36.249Z,11.83
2022-10-14T03:13:06.140Z,11.81
2022-10-14T03:15:35.965Z,11.82
2022-10-14T03:18:08.588Z,11.82
2022-10-14T03:20:38.323Z,11.82
2022-10-14T03:23:08.188Z,11.83
2022-10-14T03:25:37.913Z,11.83
2022-10-14T03:28:07.901Z,11.83
2022-10-14T03:30:37.692Z,11.84
2022-10-14T03:33:13.232Z,11.84
2022-10-14T03:35:45.405Z,11.84
2022-10-14T03:38:15.159Z,11.85
2022-10-14T03:40:45.022Z,11.86
2022-10-14T03:43:14.770Z,11.87
2022-10-14T03:45:44.513Z,11.89
2022-10-14T03:48:16.970Z,11.89
2022-10-14T03:50:46.688Z,11.89
2022-10-14T03:53:16.512Z,11.91
2022-10-14T03:55:46.409Z,11.90
2022-10-14T03:58:16.285Z,11.90
2022-10-14T04:00:46.120Z,11.90
2022-10-14T04:03:18.757Z,11.91
2022-10-14T04:05:48.640Z,11.89
2022-10-14T04:08:18.601Z,11.87
2022-10-14T04:10:48.570Z,11.87
2022-10-14T04:13:18.598Z,11.85
2022-10-14T04:15:48.322Z,11.84
2022-10-14T04:18:20.670Z,11.83
2022-10-14T04:20:50.524Z,11.82
2022-10-14T04:23:20.321Z,11.81
2022-10-14T04:25:50.058Z,11.79
2022-10-14T04:28:19.988Z,11.79
2022-10-14T04:30:49.819Z,11.77
2022-10-14T04:33:22.295Z,11.79
2022-10-14T04:35:52.038Z,11.80
2022-10-14T04:38:22.559Z,11.79
2022-10-14T04:40:52.348Z,11.79
2022-10-14T04:43:22.249Z,11.79
2022-10-14T04:45:52.268Z,11.79
2022-10-14T04:48:24.735Z,11.77
2022-10-14T04:50:55.400Z,11.78
2022-10-14T04:53:25.297Z,11.78
2022-10-14T04:55:55.045Z,11.77
2022-10-14T04:58:24.833Z,11.77
2022-10-14T05:00:56.940Z,11.76
2022-10-14T05:03:29.419Z,11.74
2022-10-14T05:05:59.173Z,11.73
2022-10-14T05:08:29.014Z,11.72
2022-10-14T05:10:58.787Z,11.74
2022-10-14T05:13:28.661Z,11.73
2022-10-14T05:15:58.433Z,11.75
2022-10-14T05:18:30.899Z,11.74
2022-10-14T05:21:01.118Z,11.74
2022-10-14T05:23:30.960Z,11.74
2022-10-14T05:26:00.747Z,11.75
2022-10-14T05:28:31.252Z,11.76
2022-10-14T05:31:01.114Z,11.79
2022-10-14T05:33:33.838Z,11.78
2022-10-14T05:36:03.578Z,11.76
2022-10-14T05:38:34.721Z,11.77
2022-10-14T05:41:05.008Z,11.77
2022-10-14T05:43:34.841Z,11.77
2022-10-14T05:46:04.636Z,11.76
2022-10-14T05:48:37.115Z,11.78
2022-10-14T05:51:07.311Z,11.79
2022-10-14T05:53:39.309Z,11.80
2022-10-14T05:56:11.583Z,11.83
2022-10-14T05:58:41.457Z,11.85
2022-10-14T06:01:13.126Z,11.86
2022-10-14T06:03:45.676Z,11.88
2022-10-14T06:06:16.887Z,11.88
2022-10-14T06:08:46.864Z,11.90
2022-10-14T06:11:16.914Z,11.93
2022-10-14T06:13:46.638Z,11.94
2022-10-14T06:16:16.791Z,11.95
2022-10-14T06:18:54.124Z,11.94
2022-10-14T06:21:24.272Z,11.93
2022-10-14T06:23:53.993Z,11.91
2022-10-14T06:26:23.806Z,11.92
2022-10-14T06:28:53.699Z,11.89
2022-10-14T06:31:24.449Z,11.88
2022-10-14T06:33:58.996Z,11.87
2022-10-14T06:36:29.162Z,11.88
2022-10-14T06:38:58.868Z,11.88
2022-10-14T06:41:29.098Z,11.88
2022-10-14T06:43:58.808Z,11.89
2022-10-14T06:46:28.605Z,11.88
2022-10-14T06:49:00.938Z,11.90
2022-10-14T06:51:30.629Z,11.92
2022-10-14T06:54:00.455Z,11.94
2022-10-14T06:56:30.284Z,11.94
2022-10-14T06:59:00.271Z,11.95
2022-10-14T07:01:30.476Z,11.97
2022-10-14T07:04:03.384Z,12.00
2022-10-14T07:06:33.233Z,12.04
2022-10-14T07:09:03.108Z,12.08
2022-10-14T07:11:33.024Z,12.10
2022-10-14T07:14:02.765Z,12.11
2022-10-14T07:16:33.349Z,12.13
2022-10-14T07:19:05.744Z,12.15
2022-10-14T07:21:35.449Z,12.17
2022-10-14T07:24:05.251Z,12.19
2022-10-14T07:26:35.537Z,12.23
2022-10-14T07:29:07.452Z,12.26
2022-10-14T07:31:37.424Z,12.26
2022-10-14T07:34:09.826Z,12.28
2022-10-14T07:36:39.707Z,12.30
2022-10-14T07:39:09.605Z,12.36
2022-10-14T07:41:39.607Z,12.40
2022-10-14T07:44:13.044Z,12.43
2022-10-14T07:46:45.878Z,12.43
2022-10-14T07:49:20.667Z,12.45
2022-10-14T07:51:50.724Z,12.47
2022-10-14T07:54:22.969Z,12.48
2022-10-14T07:56:53.294Z,12.49
2022-10-14T07:59:24.145Z,12.51
2022-10-14T08:01:56.832Z,12.55
2022-10-14T08:04:29.432Z,12.58
2022-10-14T08:06:59.164Z,12.60
2022-10-14T08:09:28.904Z,12.61
2022-10-14T08:11:58.674Z,12.64
2022-10-14T08:14:28.370Z,12.63
2022-10-14T08:16:58.086Z,12.64
2022-10-14T08:19:30.581Z,12.67
2022-10-14T08:22:00.350Z,12.69
2022-10-14T08:24:30.078Z,12.72
2022-10-14T08:27:01.271Z,12.75
2022-10-14T08:29:31.113Z,12.78
2022-10-14T08:32:00.848Z,12.81
2022-10-14T08:34:33.781Z,12.84
2022-10-14T08:37:05.092Z,12.87
2022-10-14T08:39:34.837Z,12.90
2022-10-14T08:42:38.001Z,12.95
2022-10-14T08:45:15.184Z,12.97
2022-10-14T08:47:49.129Z,13.02
2022-10-14T08:50:33.912Z,13.05
2022-10-14T08:53:09.950Z,13.08
2022-10-14T08:55:42.628Z,13.10
2022-10-14T08:58:17.831Z,13.12
2022-10-14T09:00:51.285Z,13.14
2022-10-14T09:03:26.770Z,13.21
2022-10-14T09:06:02.094Z,13.29
2022-10-14T09:08:38.513Z,13.36
2022-10-14T09:11:09.350Z,13.38
2022-10-14T09:13:43.126Z,13.42
2022-10-14T09:16:18.974Z,13.46
2022-10-14T09:18:54.836Z,13.47
2022-10-14T09:21:51.617Z,13.51
2022-10-14T09:24:24.708Z,13.55
2022-10-14T09:29:30.752Z,13.66
2022-10-14T09:32:04.540Z,13.71
2022-10-14T09:34:37.556Z,13.75
2022-10-14T09:37:25.092Z,13.80
2022-10-14T09:39:58.414Z,13.84
2022-10-14T09:42:33.921Z,13.89
2022-10-14T09:45:11.426Z,13.94
2022-10-14T09:47:48.682Z,13.98
2022-10-14T09:50:27.880Z,14.02
2022-10-14T09:53:09.257Z,14.05
2022-10-14T09:55:49.554Z,14.06
2022-10-14T09:58:21.832Z,14.08
2022-10-14T10:00:59.752Z,14.10
2022-10-14T10:03:32.770Z,14.09
2022-10-14T10:06:05.282Z,14.08
2022-10-14T10:08:39.930Z,14.09
2022-10-14T10:11:13.960Z,14.12
2022-10-14T10:13:46.466Z,14.14
2022-10-14T10:16:26.593Z,14.18
2022-10-14T10:19:01.356Z,14.18
2022-10-14T10:21:33.409Z,14.21
2022-10-14T10:24:07.081Z,14.25
2022-10-14T10:26:37.703Z,14.23
2022-10-14T10:29:08.664Z,14.24
2022-10-14T10:31:53.255Z,14.26
2022-10-14T10:35:09.617Z,14.26
2022-10-14T10:37:48.804Z,14.24
2022-10-14T10:40:33.881Z,14.28
2022-10-14T10:43:31.928Z,14.31
2022-10-14T10:46:15.745Z,14.32
2022-10-14T10:48:51.342Z,14.32
2022-10-14T10:51:29.845Z,14.32
2022-10-14T10:54:10.635Z,14.29
2022-10-14T10:56:49.284Z,14.29
2022-10-14T10:59:43.391Z,14.34
2022-10-14T11:02:55.512Z,14.39
2022-10-14T11:05:42.153Z,14.40
2022-10-14T11:08:35.454Z,14.42
2022-10-14T11:11:32.660Z,14.47
2022-10-14T11:14:16.753Z,14.50
2022-10-14T11:16:54.351Z,14.53
2022-10-14T11:19:29.101Z,14.58
2022-10-14T11:22:09.386Z,14.59
2022-10-14T11:24:53.275Z,14.61
2022-10-14T11:27:31.288Z,14.66
2022-10-14T11:30:21.375Z,14.71
2022-10-14T11:33:05.661Z,14.75
2022-10-14T11:35:47.681Z,14.78
2022-10-14T11:41:08.632Z,14.87
2022-10-14T11:43:49.182Z,14.92
2022-10-14T11:46:23.920Z,14.93
2022-10-14T11:48:58.736Z,14.91
2022-10-14T11:51:36.153Z,14.88
2022-10-14T11:54:08.729Z,14.89
2022-10-14T11:56:45.782Z,14.93
2022-10-14T11:59:28.878Z,14.95
2022-10-14T12:02:04.104Z,14.98
2022-10-14T12:04:39.060Z,14.98
2022-10-14T12:07:18.010Z,14.99
2022-10-14T12:09:57.293Z,15.00
2022-10-14T12:12:32.503Z,15.01
2022-10-14T12:15:07.537Z,14.99
2022-10-14T12:17:48.811Z,15.02
2022-10-14T12:20:28.791Z,15.02
2022-10-14T12:23:00.441Z,15.00
2022-10-14T12:25:36.905Z,14.95
2022-10-14T12:28:08.998Z,14.93
2022-10-14T12:30:40.490Z,14.96
2022-10-14T12:33:22.326Z,15.00
2022-10-14T12:35:59.458Z,14.99
2022-10-14T12:38:30.735Z,14.99
2022-10-14T12:41:31.497Z,15.02
2022-10-14T12:44:03.398Z,15.03
2022-10-14T12:46:35.734Z,15.04
2022-10-14T12:49:09.019Z,15.05
2022-10-14T12:51:40.285Z,15.05
2022-10-14T12:54:17.374Z,15.06
2022-10-14T12:56:58.258Z,15.08
2022-10-14T12:59:31.789Z,15.08
2022-10-14T13:02:06.919Z,15.08
2022-10-14T13:04:39.322Z,15.06
2022-10-14T13:07:40.263Z,15.06
2022-10-14T13:10:30.668Z,15.05
2022-10-14T13:13:00.674Z,15.06
2022-10-14T13:16:02.544Z,15.04
2022-10-14T13:18:52.812Z,15.04
2022-10-14T13:21:55.569Z,15.02
2022-10-14T13:24:30.296Z,15.03
2022-10-14T13:27:13.850Z,15.03
2022-10-14T13:30:02.674Z,15.03
2022-10-14T13:32:42.335Z,15.03
2022-10-14T13:35:22.085Z,15.04
2022-10-14T13:38:03.045Z,15.06
2022-10-14T13:40:37.884Z,15.07
2022-10-14T13:43:17.160Z,15.09
2022-10-14T13:45:49.910Z,15.08
2022-10-14T13:48:23.687Z,15.10
2022-10-14T13:51:46.395Z,15.11
2022-10-14T13:54:24.669Z,15.13
2022-10-14T14:00:39.105Z,15.14
2022-10-14T14:02:51.833Z,15.15
2022-10-14T14:05:26.077Z,15.15
2022-10-14T14:11:17.169Z,15.22
2022-10-14T14:13:58.912Z,15.20
2022-10-14T14:16:34.119Z,15.22
2022-10-14T14:19:10.029Z,15.21
2022-10-14T14:21:40.936Z,15.23
2022-10-14T14:24:20.127Z,15.25
2022-10-14T14:26:56.670Z,15.26
2022-10-14T14:29:30.090Z,15.27
2022-10-14T14:32:06.732Z,15.29
2022-10-14T14:34:38.925Z,15.32
2022-10-14T14:40:00.312Z,15.34
2022-10-14T14:42:36.789Z,15.36
2022-10-14T14:45:10.670Z,15.35
2022-10-14T14:47:40.625Z,15.39
2022-10-14T14:50:31.690Z,15.40
2022-10-14T14:53:05.681Z,15.44
2022-10-14T14:55:40.817Z,15.46
2022-10-14T14:58:24.547Z,15.48
2022-10-14T15:00:55.359Z,15.49
2022-10-14T15:03:26.917Z,15.50
2022-10-14T15:06:00.546Z,15.53
2022-10-14T15:08:32.831Z,15.53
2022-10-14T15:11:03.740Z,15.55
2022-10-14T15:13:52.940Z,15.56
2022-10-14T15:16:36.625Z,15.57
2022-10-14T15:19:30.210Z,15.59
2022-10-14T15:22:29.912Z,15.62
2022-10-14T15:25:12.704Z,15.62
2022-10-14T15:27:53.949Z,15.63
2022-10-14T15:30:35.155Z,15.65
2022-10-14T15:33:15.129Z,15.66
2022-10-14T15:35:46.301Z,15.68
2022-10-14T15:38:17.696Z,15.70
2022-10-14T15:40:48.815Z,15.70
2022-10-14T15:43:20.540Z,15.72
2022-10-14T15:46:08.402Z,15.72
2022-10-14T15:48:39.404Z,15.74
2022-10-14T15:51:09.801Z,15.73
2022-10-14T15:53:39.673Z,15.73
2022-10-14T15:56:10.474Z,15.75
2022-10-14T15:58:40.270Z,15.75
2022-10-14T16:01:20.733Z,15.75
2022-10-14T16:03:52.445Z,15.73
2022-10-14T16:06:22.905Z,15.74
2022-10-14T16:08:52.971Z,15.74
2022-10-14T16:11:25.909Z,15.76
2022-10-14T16:13:56.059Z,15.74
2022-10-14T16:16:33.873Z,15.73
2022-10-14T16:19:05.064Z,15.71
2022-10-14T16:21:34.968Z,15.71
2022-10-14T16:24:05.753Z,15.71
2022-10-14T16:26:37.223Z,15.69
2022-10-14T16:29:07.054Z,15.67
2022-10-14T16:31:39.607Z,15.67
2022-10-14T16:34:09.368Z,15.67
2022-10-14T16:36:39.176Z,15.66
2022-10-14T16:39:08.957Z,15.67
2022-10-14T16:41:39.048Z,15.65
2022-10-14T16:44:24.656Z,15.67
2022-10-14T16:47:11.594Z,15.65
2022-10-14T16:49:41.824Z,15.65
2022-10-14T16:52:11.857Z,15.65
2022-10-14T16:54:41.694Z,15.64
2022-10-14T16:57:11.718Z,15.63
2022-10-14T16:59:41.588Z,15.63
2022-10-14T17:02:16.605Z,15.62
2022-10-14T17:04:46.751Z,15.59
2022-10-14T17:07:17.587Z,15.59
2022-10-14T17:09:47.543Z,15.59
2022-10-14T17:12:17.673Z,15.59
2022-10-14T17:14:47.421Z,15.59
2022-10-14T17:17:19.809Z,15.59
2022-10-14T17:19:50.774Z,15.59
2022-10-14T17:22:21.151Z,15.59
2022-10-14T17:24:51.660Z,15.61
2022-10-14T17:27:24.321Z,15.62
2022-10-14T17:29:54.644Z,15.62
2022-10-14T17:32:28.296Z,15.63
2022-10-14T17:34:58.133Z,15.63
2022-10-14T17:37:28.498Z,15.64
2022-10-14T17:39:58.441Z,15.63
2022-10-14T17:42:28.248Z,15.63
2022-10-14T17:44:58.007Z,15.63
2022-10-14T17:47:30.765Z,15.59
2022-10-14T17:50:00.802Z,15.57
2022-10-14T17:52:30.697Z,15.54
2022-10-14T17:55:01.755Z,15.53
2022-10-14T17:57:31.898Z,15.51
2022-10-14T18:00:01.697Z,15.51
2022-10-14T18:02:34.427Z,15.48
2022-10-14T18:05:04.319Z,15.48
2022-10-14T18:07:34.899Z,15.47
2022-10-14T18:10:04.732Z,15.45
2022-10-14T18:12:34.937Z,15.41
2022-10-14T18:15:04.695Z,15.38
2022-10-14T18:17:37.542Z,15.35
2022-10-14T18:20:08.655Z,15.34
2022-10-14T18:22:38.548Z,15.34
2022-10-14T18:25:09.371Z,15.31
2022-10-14T18:27:39.146Z,15.30
2022-10-14T18:30:10.866Z,15.27
2022-10-14T18:32:43.279Z,15.24
2022-10-14T18:35:13.478Z,15.22
2022-10-14T18:37:43.213Z,15.20
2022-10-14T18:40:17.062Z,15.19
2022-10-14T18:42:46.891Z,15.15
2022-10-14T18:45:16.859Z,15.13
2022-10-14T18:47:49.579Z,15.10
2022-10-14T18:50:19.313Z,15.08
2022-10-14T18:52:53.403Z,15.06
2022-10-14T18:55:23.228Z,15.03
2022-10-14T18:57:52.988Z,15.02
2022-10-14T19:00:22.883Z,14.98
2022-10-14T19:02:55.258Z,14.97
2022-10-14T19:05:27.584Z,14.95
2022-10-14T19:08:00.351Z,14.93
2022-10-14T19:10:30.141Z,14.92
2022-10-14T19:13:00.193Z,14.89
2022-10-14T19:15:38.600Z,14.87
2022-10-14T19:18:14.177Z,14.86
2022-10-14T19:20:45.594Z,14.83
2022-10-14T19:23:15.556Z,14.82
2022-10-14T19:25:45.335Z,14.78
2022-10-14T19:28:15.238Z,14.77
2022-10-14T19:30:45.037Z,14.74
2022-10-14T19:33:18.584Z,14.72
2022-10-14T19:35:59.320Z,14.68
2022-10-14T19:38:29.379Z,14.67
2022-10-14T19:41:01.382Z,14.69
2022-10-14T19:43:31.770Z,14.66
2022-10-14T19:46:02.198Z,14.65
2022-10-14T19:48:34.758Z,14.63
2022-10-14T19:51:07.094Z,14.62
2022-10-14T19:53:37.129Z,14.60
2022-10-14T19:56:07.885Z,14.58
2022-10-14T19:58:39.762Z,14.58
2022-10-14T20:01:13.385Z,14.58
2022-10-14T20:03:47.161Z,14.54
2022-10-14T20:06:17.125Z,14.52
2022-10-14T20:08:46.806Z,14.52
2022-10-14T20:11:23.653Z,14.53
2022-10-14T20:13:53.804Z,14.54
2022-10-14T20:16:23.551Z,14.54
2022-10-14T20:18:59.041Z,14.57
2022-10-14T20:21:30.180Z,14.56
2022-10-14T20:24:01.084Z,14.55
2022-10-14T20:26:31.027Z,14.54
2022-10-14T20:29:01.185Z,14.52
2022-10-14T20:31:30.988Z,14.52
2022-10-14T20:34:08.672Z,14.51
2022-10-14T20:36:41.054Z,14.49
2022-10-14T20:39:10.781Z,14.50
2022-10-14T20:41:40.716Z,14.47
2022-10-14T20:44:10.526Z,14.46
2022-10-14T20:46:40.265Z,14.45
2022-10-14T20:49:12.670Z,14.46
2022-10-14T20:51:42.418Z,14.45
2022-10-14T20:54:12.473Z,14.44
2022-10-14T20:56:42.204Z,14.44
2022-10-14T20:59:15.307Z,14.44
2022-10-14T21:01:45.095Z,14.41
2022-10-14T21:04:17.446Z,14.39
2022-10-14T21:06:47.175Z,14.37
2022-10-14T21:09:16.893Z,14.35
2022-10-14T21:11:46.701Z,14.33
2022-10-14T21:14:17.767Z,14.31
2022-10-14T21:16:47.575Z,14.28
2022-10-14T21:19:20.734Z,14.27
2022-10-14T21:21:50.938Z,14.24
2022-10-14T21:24:22.556Z,14.23
2022-10-14T21:26:52.529Z,14.23
2022-10-14T21:29:23.397Z,14.22
2022-10-14T21:31:53.094Z,14.21
2022-10-14T21:34:26.066Z,14.22
2022-10-14T21:36:55.782Z,14.23
2022-10-14T21:39:26.341Z,14.23
2022-10-14T21:41:56.016Z,14.24
2022-10-14T21:44:25.853Z,14.23
2022-10-14T21:46:55.557Z,14.23
2022-10-14T21:49:28.107Z,14.22
2022-10-14T21:51:58.752Z,14.21
2022-10-14T21:54:28.700Z,14.17
2022-10-14T21:56:58.421Z,14.15
2022-10-14T21:59:28.177Z,14.16
2022-10-14T22:01:59.218Z,14.16
2022-10-14T22:04:34.534Z,14.17
2022-10-14T22:07:07.558Z,14.17
2022-10-14T22:09:37.261Z,14.18
2022-10-14T22:12:07.346Z,14.18
2022-10-14T22:14:37.080Z,14.16
2022-10-14T22:17:06.789Z,14.18
2022-10-14T22:19:39.159Z,14.18
2022-10-14T22:22:08.893Z,14.19
2022-10-14T22:24:39.150Z,14.19
2022-10-14T22:27:08.853Z,14.18
2022-10-14T22:29:38.589Z,14.19
2022-10-14T22:32:08.477Z,14.19
2022-10-14T22:34:43.242Z,14.19
2022-10-14T22:37:12.961Z,14.18
2022-10-14T22:39:42.666Z,14.19
2022-10-14T22:42:12.396Z,14.18
2022-10-14T22:44:42.108Z,14.17
2022-10-14T22:47:11.865Z,14.16
2022-10-14T22:49:44.201Z,14.17
2022-10-14T22:52:13.965Z,14.16
2022-10-14T22:54:43.694Z,14.17
2022-10-14T22:57:13.409Z,14.16
2022-10-14T22:59:43.221Z,14.16
2022-10-14T23:02:12.981Z,14.15
2022-10-14T23:04:45.370Z,14.15
2022-10-14T23:07:15.268Z,14.14
2022-10-14T23:09:45.025Z,14.12
2022-10-14T23:12:15.028Z,14.10
2022-10-14T23:14:44.751Z,14.10
2022-10-14T23:17:14.478Z,14.08
2022-10-14T23:19:46.845Z,14.06
2022-10-14T23:22:16.581Z,14.06
2022-10-14T23:24:46.283Z,14.06
2022-10-14T23:27:16.025Z,14.05
2022-10-14T23:29:45.737Z,14.06
2022-10-14T23:32:15.539Z,14.06
2022-10-14T23:34:47.896Z,14.08
2022-10-14T23:37:17.677Z,14.07
2022-10-14T23:39:47.368Z,14.09
2022-10-14T23:42:17.100Z,14.11
2022-10-14T23:44:46.820Z,14.12
2022-10-14T23:47:16.829Z,14.13
2022-10-14T23:49:49.161Z,14.14
2022-10-14T23:52:18.889Z,14.14
2022-10-14T23:54:48.661Z,14.15
2022-10-14T23:57:18.405Z,14.14
2022-10-14T23:59:48.130Z,14.16
